Terminal Aerodrome Forecast
Issued by NWS

Home | Current Version | Previous Version | Text Only | Print | Product List | Glossary On
Versions: 1 2 3 4 5 6 7 8 9 10 11 12 13 14 15 16
000
FTUS46 KSEW 260500
TAFBFI
TAF
KBFI 260536Z 2606/2706 19017G30KT P6SM SCT020 BKN100
      TEMPO 2606/2610 -SHRA SCT020 BKN040 BKN100
     FM261200 17012KT P6SM -SHRA SCT015 BKN035 BKN080
     FM261800 18012KT P6SM -SHRA SCT025 BKN050 BKN080=

USA.gov is the U.S. government's official web portal to all federal, state and local government web resources and services.